sensor_id;sensor_type;location;lat;lon;timestamp;temperature;humidity
11656;DHT22;5884;43.618;1.438;2022-10-26T04:45:31;15.70;99.90
11656;DHT22;5884;43.618;1.438;2022-10-26T04:47:59;15.80;99.90
11656;DHT22;5884;43.618;1.438;2022-10-26T04:50:28;15.80;99.90
11656;DHT22;5884;43.618;1.438;2022-10-26T04:52:55;15.80;99.90
11656;DHT22;5884;43.618;1.438;2022-10-26T04:55:22;15.80;99.90
11656;DHT22;5884;43.618;1.438;2022-10-26T04:57:49;15.80;99.90
11656;DHT22;5884;43.618;1.438;2022-10-26T05:00:17;15.80;99.90
11656;DHT22;5884;43.618;1.438;2022-10-26T05:02:45;15.80;99.90
11656;DHT22;5884;43.618;1.438;2022-10-26T05:05:13;15.70;99.90
11656;DHT22;5884;43.618;1.438;2022-10-26T05:07:40;15.80;99.90
11656;DHT22;5884;43.618;1.438;2022-10-26T05:10:08;15.80;99.90
11656;DHT22;5884;43.618;1.438;2022-10-26T05:12:36;15.80;99.90
11656;DHT22;5884;43.618;1.438;2022-10-26T05:15:04;15.90;99.90
11656;DHT22;5884;43.618;1.438;2022-10-26T05:17:32;15.90;99.90
11656;DHT22;5884;43.618;1.438;2022-10-26T05:20:00;15.90;99.90
11656;DHT22;5884;43.618;1.438;2022-10-26T05:22:30;15.90;99.90
11656;DHT22;5884;43.618;1.438;2022-10-26T05:24:58;16.00;99.90
11656;DHT22;5884;43.618;1.438;2022-10-26T05:27:25;15.90;99.90
11656;DHT22;5884;43.618;1.438;2022-10-26T05:29:52;15.90;99.90
11656;DHT22;5884;43.618;1.438;2022-10-26T05:32:19;15.90;99.90
11656;DHT22;5884;43.618;1.438;2022-10-26T05:34:47;15.90;99.90
11656;DHT22;5884;43.618;1.438;2022-10-26T05:37:15;15.90;99.90
11656;DHT22;5884;43.618;1.438;2022-10-26T05:39:42;15.80;99.90
11656;DHT22;5884;43.618;1.438;2022-10-26T05:42:10;15.80;99.90
11656;DHT22;5884;43.618;1.438;2022-10-26T05:44:37;15.80;99.90
11656;DHT22;5884;43.618;1.438;2022-10-26T05:47:05;15.90;99.90
11656;DHT22;5884;43.618;1.438;2022-10-26T05:49:32;15.80;99.90
11656;DHT22;5884;43.618;1.438;2022-10-26T05:51:59;15.80;99.90
11656;DHT22;5884;43.618;1.438;2022-10-26T05:54:28;15.90;99.90
11656;DHT22;5884;43.618;1.438;2022-10-26T05:56:55;15.90;99.90
11656;DHT22;5884;43.618;1.438;2022-10-26T05:59:24;15.90;99.90
11656;DHT22;5884;43.618;1.438;2022-10-26T06:02:00;15.90;99.90
11656;DHT22;5884;43.618;1.438;2022-10-26T06:04:36;15.90;99.90
11656;DHT22;5884;43.618;1.438;2022-10-26T06:07:10;15.80;99.90
11656;DHT22;5884;43.618;1.438;2022-10-26T06:09:41;15.70;99.90
11656;DHT22;5884;43.618;1.438;2022-10-26T06:12:10;15.70;99.90
11656;DHT22;5884;43.618;1.438;2022-10-26T06:14:39;15.80;99.90
11656;DHT22;5884;43.618;1.438;2022-10-26T06:17:19;15.80;99.90
11656;DHT22;5884;43.618;1.438;2022-10-26T06:20:04;15.90;99.90
11656;DHT22;5884;43.618;1.438;2022-10-26T06:22:54;15.90;99.90
11656;DHT22;5884;43.618;1.438;2022-10-26T06:25:35;16.00;99.90
11656;DHT22;5884;43.618;1.438;2022-10-26T06:28:16;16.00;99.90
11656;DHT22;5884;43.618;1.438;2022-10-26T06:30:48;15.90;99.90
11656;DHT22;5884;43.618;1.438;2022-10-26T06:33:15;15.90;99.90
11656;DHT22;5884;43.618;1.438;2022-10-26T06:35:50;15.90;99.90
11656;DHT22;5884;43.618;1.438;2022-10-26T06:38:22;16.00;99.90
11656;DHT22;5884;43.618;1.438;2022-10-26T06:40:55;16.00;99.90
11656;DHT22;5884;43.618;1.438;2022-10-26T06:43:24;16.00;99.90
11656;DHT22;5884;43.618;1.438;2022-10-26T06:48:48;16.10;99.90
11656;DHT22;5884;43.618;1.438;2022-10-26T06:51:19;16.10;99.90
11656;DHT22;5884;43.618;1.438;2022-10-26T06:53:50;16.20;99.90
11656;DHT22;5884;43.618;1.438;2022-10-26T06:56:24;16.20;99.90
11656;DHT22;5884;43.618;1.438;2022-10-26T06:58:53;16.30;99.90
11656;DHT22;5884;43.618;1.438;2022-10-26T07:01:22;16.30;99.90
11656;DHT22;5884;43.618;1.438;2022-10-26T07:03:49;16.40;99.90
11656;DHT22;5884;43.618;1.438;2022-10-26T07:06:16;16.40;99.90
11656;DHT22;5884;43.618;1.438;2022-10-26T07:08:43;16.40;99.90
11656;DHT22;5884;43.618;1.438;2022-10-26T07:11:10;16.40;99.90
11656;DHT22;5884;43.618;1.438;2022-10-26T07:13:39;16.40;99.90
11656;DHT22;5884;43.618;1.438;2022-10-26T07:16:06;16.40;99.90
11656;DHT22;5884;43.618;1.438;2022-10-26T07:18:33;16.50;99.90
11656;DHT22;5884;43.618;1.438;2022-10-26T07:21:01;16.50;99.90
11656;DHT22;5884;43.618;1.438;2022-10-26T07:23:28;16.50;99.90
11656;DHT22;5884;43.618;1.438;2022-10-26T07:25:58;16.50;99.90
11656;DHT22;5884;43.618;1.438;2022-10-26T07:28:25;16.40;99.90
11656;DHT22;5884;43.618;1.438;2022-10-26T07:30:54;16.40;99.90
11656;DHT22;5884;43.618;1.438;2022-10-26T07:33:24;16.40;99.90
11656;DHT22;5884;43.618;1.438;2022-10-26T07:35:51;16.30;99.90
11656;DHT22;5884;43.618;1.438;2022-10-26T07:38:20;16.30;99.90
11656;DHT22;5884;43.618;1.438;2022-10-26T07:40:47;16.30;99.90
11656;DHT22;5884;43.618;1.438;2022-10-26T07:43:15;16.30;99.90
11656;DHT22;5884;43.618;1.438;2022-10-26T07:45:42;16.40;99.90
11656;DHT22;5884;43.618;1.438;2022-10-26T07:48:10;16.40;99.90
11656;DHT22;5884;43.618;1.438;2022-10-26T07:50:38;16.40;99.90
11656;DHT22;5884;43.618;1.438;2022-10-26T07:53:05;16.50;99.90
11656;DHT22;5884;43.618;1.438;2022-10-26T07:55:32;16.50;99.90
11656;DHT22;5884;43.618;1.438;2022-10-26T07:57:59;16.60;99.90
11656;DHT22;5884;43.618;1.438;2022-10-26T08:00:27;16.60;99.90
11656;DHT22;5884;43.618;1.438;2022-10-26T08:02:54;16.70;99.90
11656;DHT22;5884;43.618;1.438;2022-10-26T08:05:23;16.70;99.90
11656;DHT22;5884;43.618;1.438;2022-10-26T08:07:50;16.80;99.90
11656;DHT22;5884;43.618;1.438;2022-10-26T08:10:17;16.80;99.90
11656;DHT22;5884;43.618;1.438;2022-10-26T08:12:44;16.90;99.90
11656;DHT22;5884;43.618;1.438;2022-10-26T08:15:11;17.00;99.90
11656;DHT22;5884;43.618;1.438;2022-10-26T08:17:39;17.00;99.90
11656;DHT22;5884;43.618;1.438;2022-10-26T08:20:07;17.10;99.90
11656;DHT22;5884;43.618;1.438;2022-10-26T08:22:36;17.20;99.90
11656;DHT22;5884;43.618;1.438;2022-10-26T08:25:04;17.20;99.90
11656;DHT22;5884;43.618;1.438;2022-10-26T08:27:31;17.30;99.90
11656;DHT22;5884;43.618;1.438;2022-10-26T08:29:58;17.40;99.90
11656;DHT22;5884;43.618;1.438;2022-10-26T08:32:25;17.40;99.90
11656;DHT22;5884;43.618;1.438;2022-10-26T08:34:53;17.40;99.90
11656;DHT22;5884;43.618;1.438;2022-10-26T08:37:20;17.50;99.90
11656;DHT22;5884;43.618;1.438;2022-10-26T08:39:49;17.60;99.90
11656;DHT22;5884;43.618;1.438;2022-10-26T08:42:20;17.70;99.90
11656;DHT22;5884;43.618;1.438;2022-10-26T08:44:51;17.80;99.90
11656;DHT22;5884;43.618;1.438;2022-10-26T08:47:25;17.90;99.90
11656;DHT22;5884;43.618;1.438;2022-10-26T08:50:00;18.00;99.90
11656;DHT22;5884;43.618;1.438;2022-10-26T08:52:34;18.10;99.90
11656;DHT22;5884;43.618;1.438;2022-10-26T08:55:13;18.20;99.90
11656;DHT22;5884;43.618;1.438;2022-10-26T08:57:42;18.40;99.90
11656;DHT22;5884;43.618;1.438;2022-10-26T09:00:17;18.50;99.90
11656;DHT22;5884;43.618;1.438;2022-10-26T09:02:48;18.60;99.90
11656;DHT22;5884;43.618;1.438;2022-10-26T09:05:19;18.70;99.90
11656;DHT22;5884;43.618;1.438;2022-10-26T09:07:54;18.80;99.90
11656;DHT22;5884;43.618;1.438;2022-10-26T09:10:35;19.00;99.90
11656;DHT22;5884;43.618;1.438;2022-10-26T09:13:13;19.10;99.90
11656;DHT22;5884;43.618;1.438;2022-10-26T09:15:55;19.20;99.90
11656;DHT22;5884;43.618;1.438;2022-10-26T09:18:39;19.20;99.90
11656;DHT22;5884;43.618;1.438;2022-10-26T09:21:24;19.30;99.90
11656;DHT22;5884;43.618;1.438;2022-10-26T09:24:01;19.40;99.90
11656;DHT22;5884;43.618;1.438;2022-10-26T09:26:37;19.50;99.90
11656;DHT22;5884;43.618;1.438;2022-10-26T09:29:12;19.60;99.90
11656;DHT22;5884;43.618;1.438;2022-10-26T09:31:41;19.70;99.90
11656;DHT22;5884;43.618;1.438;2022-10-26T09:34:21;19.80;99.90
11656;DHT22;5884;43.618;1.438;2022-10-26T09:36:53;19.90;99.90
11656;DHT22;5884;43.618;1.438;2022-10-26T09:39:29;20.00;99.90
11656;DHT22;5884;43.618;1.438;2022-10-26T09:42:10;20.10;99.90
11656;DHT22;5884;43.618;1.438;2022-10-26T09:44:44;20.10;99.90
11656;DHT22;5884;43.618;1.438;2022-10-26T09:47:30;20.00;99.90
11656;DHT22;5884;43.618;1.438;2022-10-26T09:50:06;20.00;99.90
11656;DHT22;5884;43.618;1.438;2022-10-26T09:52:43;20.00;99.90
11656;DHT22;5884;43.618;1.438;2022-10-26T09:55:10;19.90;99.90
11656;DHT22;5884;43.618;1.438;2022-10-26T09:57:41;19.90;99.90
11656;DHT22;5884;43.618;1.438;2022-10-26T10:00:13;19.90;99.90
11656;DHT22;5884;43.618;1.438;2022-10-26T10:02:42;19.90;99.90
11656;DHT22;5884;43.618;1.438;2022-10-26T10:05:26;20.00;99.90
11656;DHT22;5884;43.618;1.438;2022-10-26T10:08:13;20.00;99.90
11656;DHT22;5884;43.618;1.438;2022-10-26T10:10:56;20.00;99.90
11656;DHT22;5884;43.618;1.438;2022-10-26T10:13:30;20.00;99.90
11656;DHT22;5884;43.618;1.438;2022-10-26T10:16:05;20.00;99.90
11656;DHT22;5884;43.618;1.438;2022-10-26T10:18:36;20.00;99.90
11656;DHT22;5884;43.618;1.438;2022-10-26T10:21:06;20.10;99.90
11656;DHT22;5884;43.618;1.438;2022-10-26T10:23:35;20.10;99.90
11656;DHT22;5884;43.618;1.438;2022-10-26T10:26:06;20.00;99.90
11656;DHT22;5884;43.618;1.438;2022-10-26T10:28:37;20.10;99.90
11656;DHT22;5884;43.618;1.438;2022-10-26T10:31:18;20.10;99.90
11656;DHT22;5884;43.618;1.438;2022-10-26T10:33:47;20.10;99.90
11656;DHT22;5884;43.618;1.438;2022-10-26T10:36:17;20.10;99.90
11656;DHT22;5884;43.618;1.438;2022-10-26T10:38:47;20.30;99.90
11656;DHT22;5884;43.618;1.438;2022-10-26T10:41:18;20.40;99.90
11656;DHT22;5884;43.618;1.438;2022-10-26T10:44:02;20.50;99.90
11656;DHT22;5884;43.618;1.438;2022-10-26T10:46:32;20.80;99.90
11656;DHT22;5884;43.618;1.438;2022-10-26T10:49:04;21.10;99.90
11656;DHT22;5884;43.618;1.438;2022-10-26T10:51:37;21.20;99.90
11656;DHT22;5884;43.618;1.438;2022-10-26T10:54:14;21.30;99.90
11656;DHT22;5884;43.618;1.438;2022-10-26T10:56:51;21.40;99.90
11656;DHT22;5884;43.618;1.438;2022-10-26T10:59:45;21.40;99.90
11656;DHT22;5884;43.618;1.438;2022-10-26T11:05:40;21.40;99.90
11656;DHT22;5884;43.618;1.438;2022-10-26T11:08:18;21.50;99.90
11656;DHT22;5884;43.618;1.438;2022-10-26T11:10:51;21.40;99.90
11656;DHT22;5884;43.618;1.438;2022-10-26T11:13:26;21.20;99.90
11656;DHT22;5884;43.618;1.438;2022-10-26T11:16:00;21.20;99.90
11656;DHT22;5884;43.618;1.438;2022-10-26T11:18:32;21.20;99.90
11656;DHT22;5884;43.618;1.438;2022-10-26T11:21:05;21.20;99.90
11656;DHT22;5884;43.618;1.438;2022-10-26T11:23:43;21.10;99.90
11656;DHT22;5884;43.618;1.438;2022-10-26T11:26:16;21.00;99.90
11656;DHT22;5884;43.618;1.438;2022-10-26T11:28:49;21.00;99.90
11656;DHT22;5884;43.618;1.438;2022-10-26T11:31:24;20.90;99.90
11656;DHT22;5884;43.618;1.438;2022-10-26T11:34:15;20.90;99.90
11656;DHT22;5884;43.618;1.438;2022-10-26T11:36:48;20.90;99.90
11656;DHT22;5884;43.618;1.438;2022-10-26T11:39:21;20.90;99.90
11656;DHT22;5884;43.618;1.438;2022-10-26T11:41:59;21.00;99.90
11656;DHT22;5884;43.618;1.438;2022-10-26T11:44:30;20.90;99.90
11656;DHT22;5884;43.618;1.438;2022-10-26T11:47:06;21.00;99.90
11656;DHT22;5884;43.618;1.438;2022-10-26T11:49:41;21.00;99.90
11656;DHT22;5884;43.618;1.438;2022-10-26T11:52:15;21.10;99.90
11656;DHT22;5884;43.618;1.438;2022-10-26T11:54:47;21.10;99.90
11656;DHT22;5884;43.618;1.438;2022-10-26T11:57:18;21.20;99.90
11656;DHT22;5884;43.618;1.438;2022-10-26T11:59:49;21.20;99.90
11656;DHT22;5884;43.618;1.438;2022-10-26T12:02:21;21.20;99.90
11656;DHT22;5884;43.618;1.438;2022-10-26T12:04:54;21.30;99.90
11656;DHT22;5884;43.618;1.438;2022-10-26T12:07:28;21.30;99.90
11656;DHT22;5884;43.618;1.438;2022-10-26T12:09:58;21.40;99.90
11656;DHT22;5884;43.618;1.438;2022-10-26T12:12:34;21.40;99.90
11656;DHT22;5884;43.618;1.438;2022-10-26T12:15:15;21.50;99.90
11656;DHT22;5884;43.618;1.438;2022-10-26T12:17:51;21.60;99.90
11656;DHT22;5884;43.618;1.438;2022-10-26T12:20:53;21.60;99.90
11656;DHT22;5884;43.618;1.438;2022-10-26T12:23:28;21.70;99.90
11656;DHT22;5884;43.618;1.438;2022-10-26T12:29:34;21.80;99.90
11656;DHT22;5884;43.618;1.438;2022-10-26T12:41:25;22.10;99.90
11656;DHT22;5884;43.618;1.438;2022-10-26T12:44:10;22.10;99.90
11656;DHT22;5884;43.618;1.438;2022-10-26T12:47:02;22.10;99.90
11656;DHT22;5884;43.618;1.438;2022-10-26T13:02:18;22.30;99.90
11656;DHT22;5884;43.618;1.438;2022-10-26T13:08:18;22.30;99.90
11656;DHT22;5884;43.618;1.438;2022-10-26T13:11:00;22.30;99.90
11656;DHT22;5884;43.618;1.438;2022-10-26T13:13:30;22.20;99.90
11656;DHT22;5884;43.618;1.438;2022-10-26T13:16:01;22.30;99.90
11656;DHT22;5884;43.618;1.438;2022-10-26T13:18:31;22.30;99.90
11656;DHT22;5884;43.618;1.438;2022-10-26T13:21:08;22.30;99.90
11656;DHT22;5884;43.618;1.438;2022-10-26T13:23:40;22.30;99.90
11656;DHT22;5884;43.618;1.438;2022-10-26T13:26:10;22.30;99.90
11656;DHT22;5884;43.618;1.438;2022-10-26T13:28:48;22.30;99.90
11656;DHT22;5884;43.618;1.438;2022-10-26T13:31:54;22.40;99.90
11656;DHT22;5884;43.618;1.438;2022-10-26T13:34:25;22.40;99.90
11656;DHT22;5884;43.618;1.438;2022-10-26T13:37:06;22.50;99.90
11656;DHT22;5884;43.618;1.438;2022-10-26T13:39:42;22.60;99.90
11656;DHT22;5884;43.618;1.438;2022-10-26T13:42:15;22.60;99.90
11656;DHT22;5884;43.618;1.438;2022-10-26T13:44:49;22.60;99.90
11656;DHT22;5884;43.618;1.438;2022-10-26T13:47:24;22.70;99.90
11656;DHT22;5884;43.618;1.438;2022-10-26T13:49:59;22.60;99.90
11656;DHT22;5884;43.618;1.438;2022-10-26T13:52:34;22.80;99.90
11656;DHT22;5884;43.618;1.438;2022-10-26T13:55:08;22.90;99.90
11656;DHT22;5884;43.618;1.438;2022-10-26T13:57:41;22.90;99.90
11656;DHT22;5884;43.618;1.438;2022-10-26T14:00:16;23.00;99.90
11656;DHT22;5884;43.618;1.438;2022-10-26T14:02:47;23.00;99.90
11656;DHT22;5884;43.618;1.438;2022-10-26T14:05:17;22.90;99.90
11656;DHT22;5884;43.618;1.438;2022-10-26T14:07:47;23.10;99.90
11656;DHT22;5884;43.618;1.438;2022-10-26T14:10:28;23.00;99.90
11656;DHT22;5884;43.618;1.438;2022-10-26T14:12:57;23.00;99.90
11656;DHT22;5884;43.618;1.438;2022-10-26T14:15:28;23.10;99.90
11656;DHT22;5884;43.618;1.438;2022-10-26T14:17:58;23.10;99.90
11656;DHT22;5884;43.618;1.438;2022-10-26T14:20:29;23.00;99.90
11656;DHT22;5884;43.618;1.438;2022-10-26T14:22:57;22.90;99.90
11656;DHT22;5884;43.618;1.438;2022-10-26T14:25:26;22.80;99.90
11656;DHT22;5884;43.618;1.438;2022-10-26T14:27:54;22.80;99.90
11656;DHT22;5884;43.618;1.438;2022-10-26T14:30:23;22.80;99.90
11656;DHT22;5884;43.618;1.438;2022-10-26T14:32:51;22.80;99.90
11656;DHT22;5884;43.618;1.438;2022-10-26T14:35:22;22.80;99.90
11656;DHT22;5884;43.618;1.438;2022-10-26T14:37:54;22.80;99.90
11656;DHT22;5884;43.618;1.438;2022-10-26T14:40:24;22.80;99.90
11656;DHT22;5884;43.618;1.438;2022-10-26T14:42:56;22.80;99.90
11656;DHT22;5884;43.618;1.438;2022-10-26T14:45:28;22.80;99.90
11656;DHT22;5884;43.618;1.438;2022-10-26T14:47:58;22.90;99.90
11656;DHT22;5884;43.618;1.438;2022-10-26T14:50:26;22.90;99.90
11656;DHT22;5884;43.618;1.438;2022-10-26T14:53:00;23.00;99.90
11656;DHT22;5884;43.618;1.438;2022-10-26T14:55:29;23.00;99.90
11656;DHT22;5884;43.618;1.438;2022-10-26T14:58:06;23.10;99.90
11656;DHT22;5884;43.618;1.438;2022-10-26T15:00:34;23.00;99.90
11656;DHT22;5884;43.618;1.438;2022-10-26T15:03:01;23.00;99.90
11656;DHT22;5884;43.618;1.438;2022-10-26T15:05:30;23.00;99.90
11656;DHT22;5884;43.618;1.438;2022-10-26T15:08:01;23.00;99.90
11656;DHT22;5884;43.618;1.438;2022-10-26T15:10:47;23.00;99.90
11656;DHT22;5884;43.618;1.438;2022-10-26T15:13:20;22.90;99.90
11656;DHT22;5884;43.618;1.438;2022-10-26T15:15:53;23.00;99.90
11656;DHT22;5884;43.618;1.438;2022-10-26T15:18:23;22.90;99.90
11656;DHT22;5884;43.618;1.438;2022-10-26T15:20:53;22.80;99.90
11656;DHT22;5884;43.618;1.438;2022-10-26T15:23:23;22.80;99.90
11656;DHT22;5884;43.618;1.438;2022-10-26T15:25:54;22.70;99.90
11656;DHT22;5884;43.618;1.438;2022-10-26T15:28:24;22.70;99.90
11656;DHT22;5884;43.618;1.438;2022-10-26T15:31:00;22.70;99.90
11656;DHT22;5884;43.618;1.438;2022-10-26T15:33:29;22.70;99.90
11656;DHT22;5884;43.618;1.438;2022-10-26T15:36:12;22.70;99.90
11656;DHT22;5884;43.618;1.438;2022-10-26T15:38:42;22.70;99.90
11656;DHT22;5884;43.618;1.438;2022-10-26T15:41:14;22.60;99.90
11656;DHT22;5884;43.618;1.438;2022-10-26T15:43:46;22.70;99.90
11656;DHT22;5884;43.618;1.438;2022-10-26T15:46:13;22.60;99.90
11656;DHT22;5884;43.618;1.438;2022-10-26T15:48:41;22.60;99.90
11656;DHT22;5884;43.618;1.438;2022-10-26T15:51:11;22.50;99.90
11656;DHT22;5884;43.618;1.438;2022-10-26T15:53:39;22.60;99.90
11656;DHT22;5884;43.618;1.438;2022-10-26T15:56:13;22.60;99.90
11656;DHT22;5884;43.618;1.438;2022-10-26T15:58:42;22.50;99.90
11656;DHT22;5884;43.618;1.438;2022-10-26T16:01:13;22.40;99.90
11656;DHT22;5884;43.618;1.438;2022-10-26T16:03:42;22.40;99.90
11656;DHT22;5884;43.618;1.438;2022-10-26T16:06:14;22.30;99.90
11656;DHT22;5884;43.618;1.438;2022-10-26T16:08:48;22.20;99.90
11656;DHT22;5884;43.618;1.438;2022-10-26T16:11:17;22.10;99.90
11656;DHT22;5884;43.618;1.438;2022-10-26T16:13:44;22.10;99.90
11656;DHT22;5884;43.618;1.438;2022-10-26T16:16:12;22.00;99.90
11656;DHT22;5884;43.618;1.438;2022-10-26T16:18:41;22.00;99.90
11656;DHT22;5884;43.618;1.438;2022-10-26T16:21:10;22.00;99.90
11656;DHT22;5884;43.618;1.438;2022-10-26T16:23:38;21.90;99.90
11656;DHT22;5884;43.618;1.438;2022-10-26T16:26:07;21.90;99.90
11656;DHT22;5884;43.618;1.438;2022-10-26T16:28:35;21.80;99.90
11656;DHT22;5884;43.618;1.438;2022-10-26T16:31:05;21.70;99.90
11656;DHT22;5884;43.618;1.438;2022-10-26T16:33:34;21.70;99.90
11656;DHT22;5884;43.618;1.438;2022-10-26T16:36:01;21.70;99.90
11656;DHT22;5884;43.618;1.438;2022-10-26T16:38:30;21.60;99.90
11656;DHT22;5884;43.618;1.438;2022-10-26T16:41:01;21.50;99.90
11656;DHT22;5884;43.618;1.438;2022-10-26T16:43:32;21.50;99.90
11656;DHT22;5884;43.618;1.438;2022-10-26T16:46:04;21.50;99.90
11656;DHT22;5884;43.618;1.438;2022-10-26T16:48:34;21.50;99.90
11656;DHT22;5884;43.618;1.438;2022-10-26T16:51:07;21.50;99.90
11656;DHT22;5884;43.618;1.438;2022-10-26T16:53:35;21.50;99.90
11656;DHT22;5884;43.618;1.438;2022-10-26T16:56:04;21.40;99.90
11656;DHT22;5884;43.618;1.438;2022-10-26T16:58:34;21.30;99.90
11656;DHT22;5884;43.618;1.438;2022-10-26T17:01:01;21.30;99.90
11656;DHT22;5884;43.618;1.438;2022-10-26T17:03:29;21.30;99.90
11656;DHT22;5884;43.618;1.438;2022-10-26T17:05:57;21.20;99.90
11656;DHT22;5884;43.618;1.438;2022-10-26T17:08:25;21.20;99.90
11656;DHT22;5884;43.618;1.438;2022-10-26T17:10:54;21.20;99.90
11656;DHT22;5884;43.618;1.438;2022-10-26T17:13:28;21.10;99.90
11656;DHT22;5884;43.618;1.438;2022-10-26T17:16:01;21.10;99.90
11656;DHT22;5884;43.618;1.438;2022-10-26T17:18:28;21.10;99.90
11656;DHT22;5884;43.618;1.438;2022-10-26T17:20:56;21.00;99.90
11656;DHT22;5884;43.618;1.438;2022-10-26T17:23:24;21.00;99.90
11656;DHT22;5884;43.618;1.438;2022-10-26T17:25:51;20.90;99.90
11656;DHT22;5884;43.618;1.438;2022-10-26T17:28:19;20.90;99.90
11656;DHT22;5884;43.618;1.438;2022-10-26T17:30:46;20.90;99.90
11656;DHT22;5884;43.618;1.438;2022-10-26T17:33:15;20.80;99.90
11656;DHT22;5884;43.618;1.438;2022-10-26T17:35:42;20.80;99.90
11656;DHT22;5884;43.618;1.438;2022-10-26T17:38:09;20.80;99.90
11656;DHT22;5884;43.618;1.438;2022-10-26T17:40:36;20.70;99.90
11656;DHT22;5884;43.618;1.438;2022-10-26T17:43:03;20.70;99.90
11656;DHT22;5884;43.618;1.438;2022-10-26T17:45:31;20.60;99.90
11656;DHT22;5884;43.618;1.438;2022-10-26T17:47:58;20.60;99.90
11656;DHT22;5884;43.618;1.438;2022-10-26T17:50:27;20.60;99.90
11656;DHT22;5884;43.618;1.438;2022-10-26T17:52:54;20.50;99.90
11656;DHT22;5884;43.618;1.438;2022-10-26T17:55:21;20.50;99.90
11656;DHT22;5884;43.618;1.438;2022-10-26T17:57:48;20.40;99.90
11656;DHT22;5884;43.618;1.438;2022-10-26T18:00:16;20.40;99.90
11656;DHT22;5884;43.618;1.438;2022-10-26T18:02:43;20.40;99.90
11656;DHT22;5884;43.618;1.438;2022-10-26T18:05:11;20.40;99.90
11656;DHT22;5884;43.618;1.438;2022-10-26T18:07:39;20.30;99.90
11656;DHT22;5884;43.618;1.438;2022-10-26T18:10:07;20.20;99.90
11656;DHT22;5884;43.618;1.438;2022-10-26T18:12:35;20.20;99.90
11656;DHT22;5884;43.618;1.438;2022-10-26T18:15:02;20.20;99.90
11656;DHT22;5884;43.618;1.438;2022-10-26T18:17:30;20.10;99.90
11656;DHT22;5884;43.618;1.438;2022-10-26T18:19:57;20.00;99.90
11656;DHT22;5884;43.618;1.438;2022-10-26T18:22:24;20.00;99.90
11656;DHT22;5884;43.618;1.438;2022-10-26T18:24:53;20.00;99.90
11656;DHT22;5884;43.618;1.438;2022-10-26T18:27:20;20.00;99.90
11656;DHT22;5884;43.618;1.438;2022-10-26T18:29:47;19.90;99.90
11656;DHT22;5884;43.618;1.438;2022-10-26T18:32:14;20.00;99.90
11656;DHT22;5884;43.618;1.438;2022-10-26T18:34:42;19.90;99.90
11656;DHT22;5884;43.618;1.438;2022-10-26T18:37:09;19.90;99.90
11656;DHT22;5884;43.618;1.438;2022-10-26T18:39:36;19.80;99.90
11656;DHT22;5884;43.618;1.438;2022-10-26T18:42:05;19.80;99.90
11656;DHT22;5884;43.618;1.438;2022-10-26T18:44:32;19.80;99.90
11656;DHT22;5884;43.618;1.438;2022-10-26T18:46:59;19.80;99.90
11656;DHT22;5884;43.618;1.438;2022-10-26T18:49:26;19.70;99.90
11656;DHT22;5884;43.618;1.438;2022-10-26T18:51:54;19.80;99.90
11656;DHT22;5884;43.618;1.438;2022-10-26T18:54:21;19.70;99.90
11656;DHT22;5884;43.618;1.438;2022-10-26T18:56:48;19.70;99.90
11656;DHT22;5884;43.618;1.438;2022-10-26T18:59:17;19.70;99.90
11656;DHT22;5884;43.618;1.438;2022-10-26T19:01:44;19.60;99.90
11656;DHT22;5884;43.618;1.438;2022-10-26T19:04:11;19.70;99.90
11656;DHT22;5884;43.618;1.438;2022-10-26T19:06:41;19.60;99.90
11656;DHT22;5884;43.618;1.438;2022-10-26T19:09:10;19.70;99.90
11656;DHT22;5884;43.618;1.438;2022-10-26T19:11:37;19.60;99.90
11656;DHT22;5884;43.618;1.438;2022-10-26T19:14:06;19.60;99.90
11656;DHT22;5884;43.618;1.438;2022-10-26T19:16:36;19.50;99.90
11656;DHT22;5884;43.618;1.438;2022-10-26T19:19:04;19.50;99.90
11656;DHT22;5884;43.618;1.438;2022-10-26T19:21:33;19.50;99.90
11656;DHT22;5884;43.618;1.438;2022-10-26T19:24:01;19.50;99.90
11656;DHT22;5884;43.618;1.438;2022-10-26T19:26:31;19.50;99.90
11656;DHT22;5884;43.618;1.438;2022-10-26T19:29:00;19.50;99.90
11656;DHT22;5884;43.618;1.438;2022-10-26T19:31:28;19.50;99.90
11656;DHT22;5884;43.618;1.438;2022-10-26T19:34:00;19.50;99.90
11656;DHT22;5884;43.618;1.438;2022-10-26T19:36:28;19.50;99.90
11656;DHT22;5884;43.618;1.438;2022-10-26T19:38:57;19.50;99.90
11656;DHT22;5884;43.618;1.438;2022-10-26T19:41:25;19.40;99.90
11656;DHT22;5884;43.618;1.438;2022-10-26T19:43:53;19.40;99.90
11656;DHT22;5884;43.618;1.438;2022-10-26T19:46:22;19.30;99.90
11656;DHT22;5884;43.618;1.438;2022-10-26T19:48:52;19.40;99.90
11656;DHT22;5884;43.618;1.438;2022-10-26T19:51:22;19.30;99.90
11656;DHT22;5884;43.618;1.438;2022-10-26T19:53:49;19.30;99.90
11656;DHT22;5884;43.618;1.438;2022-10-26T19:56:18;19.30;99.90
11656;DHT22;5884;43.618;1.438;2022-10-26T19:58:46;19.30;99.90
11656;DHT22;5884;43.618;1.438;2022-10-26T20:01:15;19.30;99.90
11656;DHT22;5884;43.618;1.438;2022-10-26T20:03:42;19.30;99.90
11656;DHT22;5884;43.618;1.438;2022-10-26T20:06:11;19.30;99.90
11656;DHT22;5884;43.618;1.438;2022-10-26T20:08:41;19.30;99.90
11656;DHT22;5884;43.618;1.438;2022-10-26T20:11:10;19.20;99.90
11656;DHT22;5884;43.618;1.438;2022-10-26T20:13:38;19.20;99.90
11656;DHT22;5884;43.618;1.438;2022-10-26T20:16:07;19.20;99.90
11656;DHT22;5884;43.618;1.438;2022-10-26T20:18:34;19.20;99.90
11656;DHT22;5884;43.618;1.438;2022-10-26T20:21:05;19.20;99.90
11656;DHT22;5884;43.618;1.438;2022-10-26T20:23:33;19.20;99.90
11656;DHT22;5884;43.618;1.438;2022-10-26T20:26:02;19.20;99.90
11656;DHT22;5884;43.618;1.438;2022-10-26T20:28:29;19.10;99.90
11656;DHT22;5884;43.618;1.438;2022-10-26T20:30:57;19.20;99.90
11656;DHT22;5884;43.618;1.438;2022-10-26T20:33:25;19.20;99.90
11656;DHT22;5884;43.618;1.438;2022-10-26T20:35:56;19.10;99.90
11656;DHT22;5884;43.618;1.438;2022-10-26T20:38:24;19.10;99.90
11656;DHT22;5884;43.618;1.438;2022-10-26T20:40:54;19.10;99.90
11656;DHT22;5884;43.618;1.438;2022-10-26T20:43:25;19.10;99.90
11656;DHT22;5884;43.618;1.438;2022-10-26T20:45:54;19.10;99.90
11656;DHT22;5884;43.618;1.438;2022-10-26T20:48:22;19.10;99.90
11656;DHT22;5884;43.618;1.438;2022-10-26T20:50:53;19.10;99.90
11656;DHT22;5884;43.618;1.438;2022-10-26T20:53:27;19.00;99.90
11656;DHT22;5884;43.618;1.438;2022-10-26T20:55:58;19.10;99.90
11656;DHT22;5884;43.618;1.438;2022-10-26T20:58:36;19.00;99.90
